TJNR/NRR METAR and TAF weather

Enter ICAO airport designator
Station Type Date Time Source
TJNR METAR 2019/09/21 04:53 UTC NOAA

TJNR 210453Z AUTO 22005KT 10SM SCT017 26/25 A2993 RMK AO2 SLP135 T02610250


Station Type Date Time Source
TJNR Decoded METAR 2019/09/21 04:53 UTC NOAA

ROOSEVELT ROADS PUERTO RICO, PR, United States (TJNR) 18-15N 65-38W 10M
Sep 21, 2019 - 12:53 AM EDT / 2019.09.21 0453 UTC
Wind: from the SW (220 degrees) at 6 MPH (5 KT):0
Visibility: 10 mile(s):0
Sky conditions: partly cloudy
Temperature: 79.0 F (26.1 C)
Dew Point: 77.0 F (25.0 C)
Relative Humidity: 93%
Pressure (altimeter): 29.93 in. Hg (1013 hPa)
ob: TJNR 210453Z AUTO 22005KT 10SM SCT017 26/25 A2993 RMK AO2 SLP135 T02610250
cycle: 5

Station Type Date Time Source
TJNR TAF UTC NOAA

Error!

Example: see airport list